createdAt,value
2023-04-12T00:01:58.361Z,9.32
2023-04-12T00:04:27.414Z,9.52
2023-04-12T00:06:55.919Z,9.50
2023-04-12T00:09:23.304Z,9.95
2023-04-12T00:11:50.601Z,10.65
2023-04-12T00:14:17.486Z,11.32
2023-04-12T00:16:44.293Z,10.50
2023-04-12T00:19:11.628Z,10.55
2023-04-12T00:21:38.490Z,11.57
2023-04-12T00:24:05.565Z,12.50
2023-04-12T00:26:35.518Z,10.95
2023-04-12T00:29:02.424Z,10.90
2023-04-12T00:31:29.870Z,12.05
2023-04-12T00:33:56.940Z,10.32
2023-04-12T00:36:23.937Z,10.52
2023-04-12T00:38:50.893Z,9.82
2023-04-12T00:41:18.110Z,10.40
2023-04-12T00:43:45.033Z,9.60
2023-04-12T00:46:12.451Z,9.38
2023-04-12T00:48:40.228Z,9.68
2023-04-12T00:51:07.778Z,10.15
2023-04-12T00:53:34.652Z,9.63
2023-04-12T00:56:01.892Z,9.82
2023-04-12T00:58:28.849Z,8.98
2023-04-12T01:00:55.900Z,10.27
2023-04-12T01:03:27.724Z,10.73
2023-04-12T01:06:13.952Z,10.43
2023-04-12T01:08:44.158Z,9.05
2023-04-12T01:11:34.273Z,10.13
2023-04-12T01:14:20.624Z,10.85
2023-04-12T01:16:53.879Z,9.93
2023-04-12T01:19:35.521Z,9.98
2023-04-12T01:22:11.752Z,9.03
2023-04-12T01:25:07.224Z,9.40
2023-04-12T01:27:45.804Z,9.57
2023-04-12T01:30:14.367Z,9.52
2023-04-12T01:32:47.843Z,9.40
2023-04-12T01:35:16.281Z,10.00
2023-04-12T01:37:43.294Z,9.07
2023-04-12T01:40:13.378Z,8.82
2023-04-12T01:42:45.165Z,9.32
2023-04-12T01:45:12.358Z,9.40
2023-04-12T01:47:39.764Z,8.82
2023-04-12T01:50:18.634Z,8.88
2023-04-12T01:53:00.001Z,8.65
2023-04-12T01:55:27.654Z,9.13
2023-04-12T01:57:54.833Z,7.45
2023-04-12T02:00:22.357Z,7.68
2023-04-12T02:02:49.467Z,7.47
2023-04-12T02:05:16.708Z,8.00
2023-04-12T02:07:43.795Z,8.10
2023-04-12T02:10:16.801Z,7.15
2023-04-12T02:12:43.637Z,7.20
2023-04-12T02:15:10.928Z,7.45
2023-04-12T02:17:41.050Z,7.50
2023-04-12T02:20:12.005Z,7.35
2023-04-12T02:22:38.901Z,8.50
2023-04-12T02:25:08.895Z,7.57
2023-04-12T02:27:35.981Z,7.25
2023-04-12T02:30:04.605Z,7.95
2023-04-12T02:32:32.962Z,7.97
2023-04-12T02:35:00.375Z,6.43
2023-04-12T02:37:28.382Z,6.50
2023-04-12T02:39:57.090Z,5.97
2023-04-12T02:42:24.027Z,5.70
2023-04-12T02:44:51.851Z,5.90
2023-04-12T02:47:18.680Z,5.32
2023-04-12T02:49:45.585Z,5.22
2023-04-12T02:52:12.974Z,5.97
2023-04-12T02:54:39.888Z,5.90
2023-04-12T02:57:06.751Z,5.50
2023-04-12T02:59:33.573Z,5.75
2023-04-12T03:02:00.614Z,5.80
2023-04-12T03:04:30.936Z,5.82
2023-04-12T03:06:58.128Z,5.43
2023-04-12T03:09:25.340Z,5.85
2023-04-12T03:11:52.413Z,5.57
2023-04-12T03:14:19.297Z,5.35
2023-04-12T03:16:46.218Z,5.10
2023-04-12T03:19:14.317Z,4.95
2023-04-12T03:21:41.123Z,5.60
2023-04-12T03:24:08.187Z,5.82
2023-04-12T03:26:35.375Z,5.93
2023-04-12T03:29:09.446Z,6.32
2023-04-12T03:31:37.910Z,5.82
2023-04-12T03:34:04.871Z,5.72
2023-04-12T03:36:31.799Z,5.57
2023-04-12T03:38:58.625Z,5.45
2023-04-12T03:41:26.045Z,6.25
2023-04-12T03:43:52.887Z,5.53
2023-04-12T03:46:20.251Z,4.90
2023-04-12T03:48:47.179Z,5.80
2023-04-12T03:51:14.024Z,6.40
2023-04-12T03:53:41.592Z,6.45
2023-04-12T03:56:08.708Z,5.93
2023-04-12T03:58:36.553Z,6.22
2023-04-12T04:01:06.124Z,6.03
2023-04-12T04:03:35.274Z,6.13
2023-04-12T04:06:02.836Z,7.15
2023-04-12T04:08:30.355Z,7.90
2023-04-12T04:10:57.518Z,8.35
2023-04-12T04:13:24.341Z,7.55
2023-04-12T04:15:56.968Z,7.43
2023-04-12T04:18:23.853Z,7.20
2023-04-12T04:20:50.830Z,6.78
2023-04-12T04:23:17.696Z,6.32
2023-04-12T04:25:45.201Z,6.93
2023-04-12T04:28:12.055Z,6.32
2023-04-12T04:30:39.159Z,6.03
2023-04-12T04:33:07.350Z,6.50
2023-04-12T04:35:34.356Z,7.00
2023-04-12T04:38:01.629Z,6.47
2023-04-12T04:40:29.020Z,6.85
2023-04-12T04:42:55.984Z,6.72
2023-04-12T04:45:26.715Z,6.57
2023-04-12T04:47:54.455Z,7.00
2023-04-12T04:50:23.013Z,7.15
2023-04-12T04:52:51.189Z,7.07
2023-04-12T04:55:18.533Z,6.97
2023-04-12T04:57:45.485Z,7.00
2023-04-12T05:00:16.518Z,7.38
2023-04-12T05:02:43.955Z,6.57
2023-04-12T05:05:13.437Z,6.80
2023-04-12T05:07:40.718Z,6.65
2023-04-12T05:10:08.223Z,5.90
2023-04-12T05:12:35.078Z,6.75
2023-04-12T05:17:34.486Z,5.72
2023-04-12T05:20:08.236Z,6.03
2023-04-12T05:22:35.290Z,6.05
2023-04-12T05:25:02.801Z,5.90
2023-04-12T05:27:32.374Z,18.70
2023-04-12T05:29:59.443Z,15.13
2023-04-12T05:32:26.755Z,10.65
2023-04-12T05:34:53.614Z,8.68
2023-04-12T05:37:20.449Z,7.85
2023-04-12T05:39:49.622Z,6.78
2023-04-12T05:42:19.030Z,7.13
2023-04-12T05:44:48.043Z,6.60
2023-04-12T05:47:16.103Z,5.88
2023-04-12T05:49:42.945Z,5.97
2023-04-12T05:52:12.112Z,5.53
2023-04-12T05:54:41.913Z,6.38
2023-04-12T05:57:12.428Z,6.22
2023-04-12T05:59:39.321Z,5.72
2023-04-12T06:02:06.285Z,6.38
2023-04-12T06:04:48.749Z,6.50
2023-04-12T06:07:17.849Z,6.75
2023-04-12T06:09:44.820Z,7.18
2023-04-12T06:12:11.751Z,7.78
2023-04-12T06:14:38.594Z,8.35
2023-04-12T06:17:05.457Z,9.95
2023-04-12T06:19:32.377Z,9.68
2023-04-12T06:21:59.228Z,9.85
2023-04-12T06:24:26.071Z,10.23
2023-04-12T06:26:52.954Z,9.98
2023-04-12T06:29:19.779Z,10.70
2023-04-12T06:31:46.881Z,10.93
2023-04-12T06:34:13.875Z,10.73
2023-04-12T06:36:41.648Z,11.00
2023-04-12T06:39:09.624Z,10.52
2023-04-12T06:41:37.128Z,9.88
2023-04-12T06:44:04.048Z,9.50
2023-04-12T06:46:31.719Z,8.70
2023-04-12T06:48:59.022Z,8.65
2023-04-12T06:51:26.171Z,9.07
2023-04-12T06:53:53.125Z,9.27
2023-04-12T06:56:20.051Z,9.90
2023-04-12T06:58:48.105Z,9.05
2023-04-12T07:01:15.152Z,9.30
2023-04-12T07:03:42.095Z,9.13
2023-04-12T07:06:21.765Z,9.57
2023-04-12T07:08:51.700Z,8.77
2023-04-12T07:11:21.830Z,9.15
2023-04-12T07:13:51.918Z,8.77
2023-04-12T07:16:18.860Z,9.57
2023-04-12T07:18:45.979Z,9.00
2023-04-12T07:21:17.621Z,10.20
2023-04-12T07:23:44.840Z,9.15
2023-04-12T07:26:11.713Z,9.20
2023-04-12T07:28:40.803Z,9.18
2023-04-12T07:31:07.847Z,9.48
2023-04-12T07:33:36.186Z,9.18
2023-04-12T07:36:04.343Z,8.52
2023-04-12T07:38:33.706Z,8.77
2023-04-12T07:41:00.650Z,7.40
2023-04-12T07:43:27.497Z,7.95
2023-04-12T07:45:57.460Z,7.18
2023-04-12T07:48:24.490Z,6.38
2023-04-12T07:50:51.605Z,6.45
2023-04-12T07:53:23.735Z,4.88
2023-04-12T07:55:53.801Z,4.70
2023-04-12T07:58:24.083Z,4.95
2023-04-12T08:00:51.595Z,5.80
2023-04-12T08:03:19.434Z,5.80
2023-04-12T08:05:53.498Z,5.70
2023-04-12T08:08:22.274Z,5.85
2023-04-12T08:10:49.974Z,5.50
2023-04-12T08:13:17.010Z,4.55
2023-04-12T08:15:44.080Z,5.25
2023-04-12T08:18:11.289Z,5.13
2023-04-12T08:20:41.069Z,5.43
2023-04-12T08:23:08.505Z,5.03
2023-04-12T08:25:38.520Z,5.63
2023-04-12T08:28:07.478Z,4.63
2023-04-12T08:30:35.059Z,5.03
2023-04-12T08:33:03.069Z,5.82
2023-04-12T08:35:30.369Z,5.40
2023-04-12T08:37:57.324Z,5.05
2023-04-12T08:40:24.612Z,6.60
2023-04-12T08:42:53.089Z,6.35
2023-04-12T08:45:23.862Z,6.47
2023-04-12T08:47:51.123Z,6.50
2023-04-12T08:50:18.772Z,5.43
2023-04-12T08:52:47.768Z,6.10
2023-04-12T08:55:14.609Z,5.80
2023-04-12T08:57:42.553Z,6.07
2023-04-12T09:00:10.754Z,5.30
2023-04-12T09:02:38.690Z,5.75
2023-04-12T09:05:09.818Z,5.40
2023-04-12T09:07:36.729Z,5.03
2023-04-12T09:10:04.855Z,4.47
2023-04-12T09:12:31.906Z,4.20
2023-04-12T09:15:13.703Z,4.43
2023-04-12T09:17:41.928Z,4.18
2023-04-12T09:20:17.987Z,4.10
2023-04-12T09:22:48.009Z,4.00
2023-04-12T09:25:17.961Z,4.45
2023-04-12T09:27:52.551Z,4.82
2023-04-12T09:30:20.782Z,4.18
2023-04-12T09:32:51.152Z,4.10
2023-04-12T09:35:18.814Z,4.68
2023-04-12T09:37:45.813Z,5.25
2023-04-12T09:40:13.239Z,4.45
2023-04-12T09:42:53.614Z,4.82
2023-04-12T09:45:24.008Z,4.25
2023-04-12T09:47:51.359Z,4.15
2023-04-12T09:50:28.823Z,4.45
2023-04-12T09:52:57.533Z,5.07
2023-04-12T09:55:26.753Z,4.97
2023-04-12T09:57:55.177Z,5.82
2023-04-12T10:00:27.315Z,5.28
2023-04-12T10:05:26.274Z,4.53
2023-04-12T10:07:54.781Z,4.03
2023-04-12T10:10:23.389Z,3.97
2023-04-12T10:12:51.110Z,4.18
2023-04-12T10:15:18.577Z,4.68
2023-04-12T10:17:45.896Z,5.32
2023-04-12T10:20:14.056Z,5.30
2023-04-12T10:22:46.293Z,5.20
2023-04-12T10:27:44.683Z,4.13
2023-04-12T10:30:28.608Z,4.20
2023-04-12T10:33:05.122Z,5.07
2023-04-12T10:35:50.940Z,4.80
2023-04-12T10:38:19.824Z,3.95
2023-04-12T10:41:08.877Z,4.15
2023-04-12T10:43:36.087Z,4.15
2023-04-12T10:46:05.299Z,3.75
2023-04-12T10:48:39.854Z,3.78
2023-04-12T10:51:28.712Z,3.00
2023-04-12T10:54:08.089Z,2.92
2023-04-12T10:56:35.683Z,2.70
2023-04-12T10:59:04.025Z,3.30
2023-04-12T11:01:31.936Z,3.00
2023-04-12T11:04:21.318Z,3.28
2023-04-12T11:07:01.799Z,3.22
2023-04-12T11:09:34.694Z,4.13
2023-04-12T11:12:04.678Z,4.60
2023-04-12T11:14:49.349Z,5.82
2023-04-12T11:17:16.899Z,3.55
2023-04-12T11:19:51.364Z,3.97
2023-04-12T11:22:19.968Z,3.17
2023-04-12T11:24:52.519Z,4.32
2023-04-12T11:27:21.591Z,4.57
2023-04-12T11:29:50.763Z,4.10
2023-04-12T11:32:17.741Z,4.72
2023-04-12T11:34:46.174Z,5.00
2023-04-12T11:37:13.199Z,5.18
2023-04-12T11:39:42.766Z,5.70
2023-04-12T11:42:17.866Z,5.95
2023-04-12T11:47:23.058Z,6.25
2023-04-12T11:49:55.505Z,5.43
2023-04-12T11:52:31.350Z,6.15
2023-04-12T11:55:01.531Z,5.63
2023-04-12T11:57:29.356Z,5.53
2023-04-12T11:59:58.594Z,4.68
2023-04-12T12:02:29.123Z,5.70
2023-04-12T12:04:58.958Z,5.60
2023-04-12T12:07:26.733Z,6.05
2023-04-12T12:09:53.828Z,4.78
2023-04-12T12:12:20.752Z,5.15
2023-04-12T12:14:47.643Z,5.38
2023-04-12T12:17:17.518Z,5.03
2023-04-12T12:19:45.748Z,5.60
2023-04-12T12:22:18.752Z,6.13
2023-04-12T12:24:51.456Z,6.35
2023-04-12T12:27:20.181Z,5.30
2023-04-12T12:29:51.025Z,5.75
2023-04-12T12:32:19.052Z,5.93
2023-04-12T12:34:57.123Z,5.78
2023-04-12T12:37:25.856Z,5.82
2023-04-12T12:40:21.551Z,6.32
2023-04-12T12:42:54.251Z,6.63
2023-04-12T12:45:26.869Z,6.75
2023-04-12T12:48:04.320Z,6.45
2023-04-12T12:50:35.551Z,6.22
2023-04-12T12:53:03.306Z,6.03
2023-04-12T12:55:31.169Z,6.20
2023-04-12T12:58:06.939Z,6.43
2023-04-12T13:00:35.033Z,6.72
2023-04-12T13:03:02.295Z,6.70
2023-04-12T13:05:29.783Z,6.00
2023-04-12T13:07:56.638Z,6.30
2023-04-12T13:10:24.089Z,6.53
2023-04-12T13:12:51.515Z,5.60
2023-04-12T13:15:23.859Z,5.82
2023-04-12T13:17:55.089Z,5.45
2023-04-12T13:20:22.907Z,5.45
2023-04-12T13:22:52.152Z,5.82
2023-04-12T13:25:21.767Z,5.63
2023-04-12T13:27:49.424Z,6.05
2023-04-12T13:30:16.505Z,7.07
2023-04-12T13:32:44.812Z,6.40
2023-04-12T13:35:12.244Z,7.88
2023-04-12T13:37:39.261Z,7.75
2023-04-12T13:40:06.981Z,7.82
2023-04-12T13:42:33.923Z,6.80
2023-04-12T13:45:01.560Z,7.72
2023-04-12T13:47:28.476Z,7.20
2023-04-12T13:49:55.397Z,9.07
2023-04-12T13:52:22.485Z,9.35
2023-04-12T13:54:49.394Z,7.85
2023-04-12T13:57:16.397Z,8.07
2023-04-12T13:59:43.247Z,9.25
2023-04-12T14:02:10.186Z,6.10
2023-04-12T14:04:37.268Z,6.68
2023-04-12T14:07:04.151Z,6.65
2023-04-12T14:09:33.134Z,6.13
2023-04-12T14:12:01.718Z,7.63
2023-04-12T14:14:28.732Z,6.95
2023-04-12T14:16:58.857Z,6.20
2023-04-12T14:19:26.070Z,5.75
2023-04-12T14:21:53.131Z,6.55
2023-04-12T14:24:21.195Z,6.35
2023-04-12T14:26:50.258Z,6.40
2023-04-12T14:29:17.461Z,6.95
2023-04-12T14:31:44.361Z,6.30
2023-04-12T14:34:11.333Z,7.00
2023-04-12T14:36:38.190Z,4.93
2023-04-12T14:39:07.655Z,6.60
2023-04-12T14:41:36.552Z,5.20
2023-04-12T14:44:03.425Z,4.80
2023-04-12T14:46:31.804Z,5.20
2023-04-12T14:49:01.318Z,5.30
2023-04-12T14:51:29.455Z,4.68
2023-04-12T14:53:56.730Z,4.05
2023-04-12T14:56:29.218Z,5.22
2023-04-12T14:58:57.361Z,5.78
2023-04-12T15:01:25.566Z,5.40
2023-04-12T15:03:53.320Z,5.38
2023-04-12T15:06:22.960Z,5.05
2023-04-12T15:08:57.426Z,5.53
2023-04-12T15:11:27.301Z,5.32
2023-04-12T15:13:55.271Z,5.65
2023-04-12T15:16:23.074Z,6.60
2023-04-12T15:18:51.399Z,6.20
2023-04-12T15:21:18.376Z,5.82
2023-04-12T15:23:45.285Z,6.50
2023-04-12T15:26:14.272Z,6.53
2023-04-12T15:28:43.661Z,6.07
2023-04-12T15:31:12.030Z,6.30
2023-04-12T15:33:39.068Z,7.22
2023-04-12T15:36:08.309Z,8.15
2023-04-12T15:38:41.992Z,7.45
2023-04-12T15:41:09.134Z,6.88
2023-04-12T15:43:35.984Z,7.13
2023-04-12T15:46:03.570Z,6.55
2023-04-12T15:48:30.746Z,7.07
2023-04-12T15:50:57.617Z,7.05
2023-04-12T15:53:26.223Z,7.95
2023-04-12T15:55:56.509Z,7.43
2023-04-12T15:58:24.280Z,8.90
2023-04-12T16:00:53.078Z,7.82
2023-04-12T16:03:23.309Z,8.40
2023-04-12T16:05:53.671Z,8.10
2023-04-12T16:08:21.225Z,6.88
2023-04-12T16:10:49.154Z,7.22
2023-04-12T16:13:16.203Z,7.97
2023-04-12T16:15:43.233Z,7.03
2023-04-12T16:18:10.287Z,7.57
2023-04-12T16:20:37.590Z,7.57
2023-04-12T16:23:05.235Z,7.95
2023-04-12T16:25:32.342Z,8.10
2023-04-12T16:28:02.493Z,6.60
2023-04-12T16:30:31.639Z,6.50
2023-04-12T16:32:58.584Z,7.18
2023-04-12T16:35:25.516Z,8.63
2023-04-12T16:37:52.406Z,7.57
2023-04-12T16:40:19.398Z,7.88
2023-04-12T16:42:46.661Z,7.80
2023-04-12T16:45:16.357Z,7.78
2023-04-12T16:47:46.058Z,8.38
2023-04-12T16:50:13.617Z,8.07
2023-04-12T16:52:41.612Z,7.45
2023-04-12T16:55:11.924Z,7.72
2023-04-12T16:57:40.942Z,7.15
2023-04-12T17:00:22.754Z,8.32
2023-04-12T17:02:51.195Z,9.18
2023-04-12T17:05:19.877Z,7.68
2023-04-12T17:07:51.498Z,8.73
2023-04-12T17:10:20.546Z,7.95
2023-04-12T17:12:48.914Z,9.45
2023-04-12T17:15:17.438Z,8.65
2023-04-12T17:17:47.303Z,8.35
2023-04-12T17:20:16.316Z,7.72
2023-04-12T17:22:43.178Z,7.18
2023-04-12T17:25:10.609Z,7.82
2023-04-12T17:27:38.191Z,7.82
2023-04-12T17:30:06.778Z,11.05
2023-04-12T17:32:33.727Z,10.35
2023-04-12T17:35:00.714Z,9.40
2023-04-12T17:37:30.106Z,10.70
2023-04-12T17:39:57.484Z,11.00
2023-04-12T17:42:27.148Z,11.25
2023-04-12T17:44:54.085Z,11.70
2023-04-12T17:47:22.534Z,11.57
2023-04-12T17:49:50.036Z,10.18
2023-04-12T17:52:17.652Z,9.85
2023-04-12T17:54:47.177Z,10.55
2023-04-12T17:57:14.017Z,12.98
2023-04-12T17:59:41.669Z,16.88
2023-04-12T18:02:09.219Z,22.55
2023-04-12T18:04:36.834Z,25.75
2023-04-12T18:07:04.674Z,30.23
2023-04-12T18:09:33.729Z,30.55
2023-04-12T18:12:00.638Z,26.88
2023-04-12T18:14:27.584Z,26.08
2023-04-12T18:16:54.522Z,27.23
2023-04-12T18:19:21.436Z,26.58
2023-04-12T18:21:48.517Z,26.85
2023-04-12T18:24:17.088Z,27.88
2023-04-12T18:26:45.105Z,28.10
2023-04-12T18:29:14.501Z,30.55
2023-04-12T18:31:41.663Z,30.30
2023-04-12T18:34:08.977Z,31.15
2023-04-12T18:36:38.401Z,26.77
2023-04-12T18:39:05.766Z,27.08
2023-04-12T18:41:32.948Z,24.48
2023-04-12T18:44:00.193Z,22.05
2023-04-12T18:46:28.990Z,24.50
2023-04-12T18:48:56.951Z,22.98
2023-04-12T18:51:24.324Z,21.92
2023-04-12T18:53:51.499Z,23.88
2023-04-12T18:56:24.538Z,21.27
2023-04-12T18:58:55.516Z,22.05
2023-04-12T19:01:24.079Z,22.58
2023-04-12T19:03:51.535Z,24.55
2023-04-12T19:06:18.653Z,25.23
2023-04-12T19:08:45.722Z,24.90
2023-04-12T19:11:12.822Z,24.33
2023-04-12T19:13:39.719Z,24.52
2023-04-12T19:16:11.241Z,23.20
2023-04-12T19:18:41.963Z,23.08
2023-04-12T19:21:08.874Z,25.52
2023-04-12T19:23:35.697Z,22.83
2023-04-12T19:26:03.107Z,23.55
2023-04-12T19:28:29.948Z,24.08
2023-04-12T19:31:01.528Z,22.30
2023-04-12T19:33:29.688Z,23.65
2023-04-12T19:36:11.799Z,22.33
2023-04-12T19:38:57.463Z,21.95
2023-04-12T19:41:24.691Z,19.02
2023-04-12T19:43:51.628Z,21.42
2023-04-12T19:46:18.619Z,20.55
2023-04-12T19:48:46.569Z,22.98
2023-04-12T19:51:13.958Z,24.83
2023-04-12T19:53:42.016Z,21.00
2023-04-12T19:56:09.779Z,23.45
2023-04-12T19:58:41.520Z,21.52
2023-04-12T20:01:09.954Z,20.42
2023-04-12T20:03:37.719Z,26.48
2023-04-12T20:06:05.445Z,24.00
2023-04-12T20:08:33.138Z,24.70
2023-04-12T20:11:00.107Z,22.90
2023-04-12T20:13:28.724Z,32.00
2023-04-12T20:15:55.617Z,26.23
2023-04-12T20:18:22.645Z,29.08
2023-04-12T20:20:49.851Z,38.42
2023-04-12T20:23:17.161Z,37.35
2023-04-12T20:25:49.040Z,33.85
2023-04-12T20:28:16.127Z,40.40
2023-04-12T20:30:43.205Z,39.67
2023-04-12T20:33:10.486Z,37.20
2023-04-12T20:35:37.704Z,33.10
2023-04-12T20:38:05.309Z,34.17
2023-04-12T20:40:32.252Z,25.27
2023-04-12T20:42:59.926Z,28.17
2023-04-12T20:45:27.265Z,27.20
2023-04-12T20:47:54.157Z,28.75
2023-04-12T20:50:22.498Z,29.23
2023-04-12T20:52:50.032Z,28.90
2023-04-12T20:55:17.370Z,29.15
2023-04-12T20:57:44.215Z,28.05
2023-04-12T21:00:18.253Z,26.83
2023-04-12T21:02:46.080Z,26.13
2023-04-12T21:05:17.017Z,25.60
2023-04-12T21:07:46.783Z,25.45
2023-04-12T21:10:14.999Z,26.35
2023-04-12T21:12:42.868Z,25.35
2023-04-12T21:15:11.806Z,25.27
2023-04-12T21:17:39.065Z,23.77
2023-04-12T21:20:14.037Z,22.48
2023-04-12T21:22:45.091Z,21.40
2023-04-12T21:25:15.114Z,22.87
2023-04-12T21:27:43.736Z,24.88
2023-04-12T21:30:11.563Z,24.25
2023-04-12T21:32:38.933Z,22.90
2023-04-12T21:35:10.028Z,21.50
2023-04-12T21:37:41.070Z,22.67
2023-04-12T21:40:12.525Z,21.00
2023-04-12T21:42:40.804Z,21.33
2023-04-12T21:45:13.096Z,23.60
2023-04-12T21:50:09.030Z,20.48
2023-04-12T21:52:36.205Z,19.45
2023-04-12T21:55:04.892Z,17.73
2023-04-12T21:57:32.571Z,17.40
2023-04-12T21:59:59.567Z,17.30
2023-04-12T22:02:27.540Z,17.85
2023-04-12T22:04:54.687Z,17.75
2023-04-12T22:07:21.657Z,18.45
2023-04-12T22:09:48.559Z,16.50
2023-04-12T22:12:18.026Z,18.80
2023-04-12T22:14:49.800Z,18.90
2023-04-12T22:17:18.313Z,17.17
2023-04-12T22:19:45.401Z,16.30
2023-04-12T22:22:14.291Z,16.60
2023-04-12T22:24:41.312Z,18.25
2023-04-12T22:27:09.331Z,18.50
2023-04-12T22:29:37.762Z,17.58
2023-04-12T22:32:04.962Z,20.15
2023-04-12T22:34:33.863Z,19.52
2023-04-12T22:37:03.342Z,19.05
2023-04-12T22:39:31.872Z,17.90
2023-04-12T22:41:58.980Z,18.75
2023-04-12T22:44:27.017Z,18.17
2023-04-12T22:46:56.793Z,18.85
2023-04-12T22:49:31.145Z,18.02
2023-04-12T22:51:58.336Z,18.45
2023-04-12T22:54:25.886Z,18.60
2023-04-12T22:56:52.899Z,18.42
2023-04-12T22:59:22.971Z,17.92
2023-04-12T23:01:50.403Z,18.55
2023-04-12T23:04:17.556Z,18.08
2023-04-12T23:06:44.677Z,20.10
2023-04-12T23:09:12.556Z,20.50
2023-04-12T23:11:42.116Z,21.08
2023-04-12T23:14:09.903Z,20.23
2023-04-12T23:16:42.476Z,20.92
2023-04-12T23:19:09.848Z,20.98
2023-04-12T23:21:37.197Z,20.17
2023-04-12T23:24:05.262Z,19.67
2023-04-12T23:26:34.340Z,19.95
2023-04-12T23:29:03.572Z,18.70
2023-04-12T23:31:32.302Z,18.60
2023-04-12T23:34:03.850Z,18.88
2023-04-12T23:36:30.995Z,19.50
2023-04-12T23:39:00.402Z,18.80
2023-04-12T23:41:31.809Z,19.00
2023-04-12T23:43:59.490Z,19.70
2023-04-12T23:46:27.088Z,21.02
2023-04-12T23:48:54.013Z,21.10
2023-04-12T23:51:22.063Z,19.98
2023-04-12T23:53:48.941Z,19.27
2023-04-12T23:56:15.905Z,20.88
2023-04-12T23:58:42.774Z,19.63
